Wrightsboro, Texas
Current Conditions -  °F | °C
As of 5:35 PM on Wednesday 22 Oct 2014 (Local Time) from KT20 Reporting Station
Clear Clear  
Wind Chill: 82°   Ceiling: Unl
Heat Index: 82°   Visibility: 10mi
Dew Point: 58°   Wind: 7mph
Humidity: 45%   Direction: 60°ENE
Pressure: 30.02"   Gusts: NA
Location:  29.37°N, 97.56°W
Report Text: KT20 222235Z AUTO 06006KT 10SM CLR 28/15 A3002 RMK AO2 T02780147
Loading
Personal Weather Stations






























Interactive Weather Map
Tropical Storm Tracking
New forecast layout! Learn more

10-Day Weather Forecast

Advertisements
Track Severe Weather on mobile